Time;durP1;ratioP1;P1;durP2;ratioP2;P2;SDS_P1;SDS_P2;PMS_P1;PMS_P2;Temp;Humidity;BMP_temperature;BMP_pressure;BME280_temperature;BME280_humidity;BME280_pressure;Samples;Min_cycle;Max_cycle;Signal;HPM_P1;HPM_P2
2024/01/28 00:01:03;;;;;;;11.18;2.50;;;;;;;3.82;78.60;101202.72;5016032;28;20553;-50
2024/01/28 00:03:31;;;;;;;5.80;1.38;;;;;;;3.79;78.50;101194.91;5005972;28;20100;-49
2024/01/28 00:06:00;;;;;;;3.80;1.38;;;;;;;3.82;78.37;101195.03;5005507;28;20042;-56
2024/01/28 00:08:27;;;;;;;2.78;1.23;;;;;;;3.80;78.23;101194.09;5013684;28;20054;-53
2024/01/28 00:10:56;;;;;;;6.10;1.00;;;;;;;3.81;77.81;101193.28;5014059;28;21121;-48
2024/01/28 00:13:24;;;;;;;5.35;1.35;;;;;;;3.79;78.39;101187.22;5016535;28;20085;-52
2024/01/28 00:15:53;;;;;;;5.97;1.40;;;;;;;3.76;78.20;101184.53;5024631;28;20075;-54
2024/01/28 00:18:20;;;;;;;1.95;0.93;;;;;;;3.76;78.38;101178.53;5026800;28;20144;-51
2024/01/28 00:20:47;;;;;;;2.63;1.23;;;;;;;3.71;78.72;101170.63;5028503;28;20049;-53
2024/01/28 00:23:15;;;;;;;3.25;1.38;;;;;;;3.73;78.94;101163.88;5022944;28;20065;-55
2024/01/28 00:25:42;;;;;;;4.45;1.13;;;;;;;3.73;78.64;101175.03;5025813;28;20041;-51
2024/01/28 00:28:09;;;;;;;2.25;1.17;;;;;;;3.75;78.81;101163.97;5025980;28;20111;-55
2024/01/28 00:30:36;;;;;;;8.02;1.65;;;;;;;3.77;78.26;101165.78;5026565;28;20057;-51
2024/01/28 00:33:03;;;;;;;5.15;1.55;;;;;;;3.75;78.02;101157.13;5023449;28;20038;-56
2024/01/28 00:35:30;;;;;;;6.47;1.05;;;;;;;3.69;77.96;101151.75;5023410;28;20049;-48
2024/01/28 00:37:57;;;;;;;3.92;1.48;;;;;;;3.65;78.15;101144.75;5019860;28;20413;-54
2024/01/28 00:40:24;;;;;;;4.82;1.25;;;;;;;3.63;78.54;101146.34;5024333;28;20056;-48
2024/01/28 00:42:51;;;;;;;4.15;1.63;;;;;;;3.62;78.54;101144.59;5026894;28;20049;-54
2024/01/28 00:45:21;;;;;;;3.92;1.25;;;;;;;3.58;78.80;101144.47;5022675;28;20049;-53
2024/01/28 00:47:47;;;;;;;3.35;1.40;;;;;;;3.63;78.56;101130.97;5025304;28;21042;-57
2024/01/28 00:50:14;;;;;;;3.17;1.42;;;;;;;3.66;78.62;101121.75;5025052;28;20501;-53
2024/01/28 00:52:43;;;;;;;1.25;0.63;;;;;;;3.66;79.21;101121.75;5022132;28;20092;-55
2024/01/28 00:55:10;;;;;;;8.50;2.33;;;;;;;3.66;79.02;101118.31;5027359;28;20060;-53
2024/01/28 00:57:37;;;;;;;6.93;1.92;;;;;;;3.69;78.11;101116.75;5027407;28;20050;-50
2024/01/28 01:00:05;;;;;;;9.65;1.55;;;;;;;3.66;78.44;101113.19;5025260;28;20058;-53
2024/01/28 01:02:32;;;;;;;5.85;1.92;;;;;;;3.69;77.90;101110.75;5025788;28;20136;-54
2024/01/28 01:05:00;;;;;;;6.75;1.70;;;;;;;3.66;78.16;101105.50;5029700;28;20045;-55
2024/01/28 01:07:27;;;;;;;3.78;1.23;;;;;;;3.62;78.17;101109.63;5027541;28;20053;-54
2024/01/28 01:09:53;;;;;;;3.17;1.40;;;;;;;3.60;78.27;101101.88;5027953;28;20057;-55
2024/01/28 01:12:21;;;;;;;3.20;1.23;;;;;;;3.59;78.57;101102.66;5028596;28;20045;-56
2024/01/28 01:14:48;;;;;;;5.88;1.20;;;;;;;3.59;78.67;101104.38;5028862;28;20104;-52
2024/01/28 01:17:16;;;;;;;9.85;1.77;;;;;;;3.60;78.94;101096.75;5028707;28;20057;-53
2024/01/28 01:19:43;;;;;;;5.82;1.77;;;;;;;3.60;78.76;101096.75;5029030;28;20056;-59
2024/01/28 01:22:14;;;;;;;2.35;1.08;;;;;;;3.57;78.00;101096.59;5027388;28;20137;-53
2024/01/28 01:24:41;;;;;;;3.80;1.23;;;;;;;3.56;78.89;101089.75;5028372;28;20046;-48
2024/01/28 01:27:09;;;;;;;2.83;1.52;;;;;;;3.54;78.66;101091.34;5027955;28;20048;-52
2024/01/28 01:29:36;;;;;;;3.17;1.65;;;;;;;3.49;78.72;101087.72;5031349;28;20053;-54
2024/01/28 01:32:04;;;;;;;6.40;1.65;;;;;;;3.51;78.53;101082.66;5027828;28;20049;-52
2024/01/28 01:34:33;;;;;;;3.35;1.42;;;;;;;3.46;78.35;101073.09;5027251;28;20059;-51
2024/01/28 01:37:02;;;;;;;4.43;1.52;;;;;;;3.41;78.85;101071.16;5028046;28;20051;-54
2024/01/28 01:39:30;;;;;;;5.32;1.70;;;;;;;3.37;79.23;101056.47;5028486;28;20057;-54
2024/01/28 01:41:58;;;;;;;4.82;2.05;;;;;;;3.38;79.22;101053.09;5028556;28;20152;-54
2024/01/28 01:44:26;;;;;;;8.18;1.73;;;;;;;3.39;79.17;101044.59;5025086;28;20053;-51
2024/01/28 01:46:54;;;;;;;5.93;1.30;;;;;;;3.36;79.12;101044.44;5026918;28;20049;-55
2024/01/28 01:49:22;;;;;;;5.38;1.58;;;;;;;3.38;78.65;101042.84;5028522;28;20053;-54
2024/01/28 01:51:50;;;;;;;4.63;1.60;;;;;;;3.30;79.66;101032.25;5027556;28;20099;-53
2024/01/28 01:54:19;;;;;;;5.15;0.90;;;;;;;3.30;79.79;101019.44;5025077;28;20053;-53
2024/01/28 01:56:46;;;;;;;2.47;1.63;;;;;;;3.30;79.36;101015.22;5023198;28;20072;-54
2024/01/28 01:59:13;;;;;;;5.60;2.10;;;;;;;3.34;79.02;101017.09;5024298;28;20076;-51
2024/01/28 02:01:42;;;;;;;8.98;1.83;;;;;;;3.29;78.85;101003.22;5025450;28;20588;-58
2024/01/28 02:04:09;;;;;;;5.03;1.85;;;;;;;3.33;79.08;101002.56;5024033;28;20049;-49
2024/01/28 02:06:36;;;;;;;6.65;1.90;;;;;;;3.33;79.20;101000.00;5024454;28;20827;-53
2024/01/28 02:09:05;;;;;;;4.30;1.75;;;;;;;3.28;79.59;100996.34;5033237;28;20110;-55
2024/01/28 02:11:32;;;;;;;4.68;2.20;;;;;;;3.31;79.77;100999.03;5025853;28;20051;-53
2024/01/28 02:13:59;;;;;;;3.53;1.55;;;;;;;3.33;79.75;101001.66;5023947;28;20112;-51
2024/01/28 02:16:25;;;;;;;3.30;1.75;;;;;;;3.32;78.67;100998.22;5025450;28;20041;-55
2024/01/28 02:18:52;;;;;;;6.15;1.77;;;;;;;3.34;79.00;100994.03;5023911;28;20073;-53
2024/01/28 02:21:20;;;;;;;3.15;1.55;;;;;;;3.31;79.52;100988.78;5021667;28;20053;-54
2024/01/28 02:23:47;;;;;;;6.63;2.47;;;;;;;3.33;78.84;100987.19;5028652;28;20797;-52
2024/01/28 02:26:17;;;;;;;14.63;2.65;;;;;;;3.32;78.61;100987.97;5028053;28;20049;-56
2024/01/28 02:28:44;;;;;;;5.32;2.00;;;;;;;3.34;78.96;100988.03;5025722;28;20706;-54
2024/01/28 02:31:10;;;;;;;6.43;1.70;;;;;;;3.31;79.02;101001.59;5019249;28;20065;-53
2024/01/28 02:33:37;;;;;;;7.68;2.60;;;;;;;3.30;78.57;100989.59;5024112;28;20059;-55
2024/01/28 02:36:05;;;;;;;11.38;2.35;;;;;;;3.29;78.24;100980.19;5023859;28;20140;-54
2024/01/28 02:38:32;;;;;;;4.28;2.72;;;;;;;3.28;78.27;100970.72;5025548;28;20052;-54
2024/01/28 02:40:59;;;;;;;9.20;3.22;;;;;;;3.27;78.66;100973.25;5035440;28;20048;-48
2024/01/28 02:43:26;;;;;;;8.82;2.42;;;;;;;3.25;78.55;100979.97;5023122;28;20046;-55
2024/01/28 02:45:52;;;;;;;8.48;2.05;;;;;;;3.27;78.36;100973.25;5022168;28;20068;-57
2024/01/28 02:48:19;;;;;;;2.83;1.42;;;;;;;3.25;78.19;100965.50;5024463;28;20053;-55
2024/01/28 02:50:46;;;;;;;5.32;2.55;;;;;;;3.26;78.59;100964.69;5022368;28;20060;-53
2024/01/28 02:53:14;;;;;;;6.28;2.78;;;;;;;3.24;78.56;100962.88;5019190;28;20783;-51
2024/01/28 02:55:41;;;;;;;3.08;1.48;;;;;;;3.22;78.58;100957.69;5017681;28;20042;-54
2024/01/28 02:58:08;;;;;;;3.97;1.65;;;;;;;3.22;78.42;100950.00;5023629;28;20046;-54
2024/01/28 03:00:36;;;;;;;10.85;2.13;;;;;;;3.23;78.42;100949.19;5022238;28;20045;-55
2024/01/28 03:03:05;;;;;;;6.15;2.38;;;;;;;3.22;79.05;100939.75;5022738;28;20461;-58
2024/01/28 03:05:32;;;;;;;7.43;2.00;;;;;;;3.16;79.00;100939.50;5025465;28;20562;-49
2024/01/28 03:07:59;;;;;;;9.85;2.85;;;;;;;3.15;78.47;100935.19;5023852;28;20057;-53
2024/01/28 03:10:26;;;;;;;4.18;1.17;;;;;;;3.12;78.90;100935.94;5022599;28;20551;-55
2024/01/28 03:12:53;;;;;;;5.75;2.65;;;;;;;3.08;78.70;100932.38;5024112;28;20053;-53
2024/01/28 03:15:20;;;;;;;6.53;1.98;;;;;;;3.08;78.43;100927.25;5026779;28;20056;-49
2024/01/28 03:17:47;;;;;;;6.18;2.42;;;;;;;3.04;79.08;100920.25;5026079;28;20136;-50
2024/01/28 03:20:16;;;;;;;5.35;1.60;;;;;;;3.04;78.38;100925.38;5024901;28;20140;-50
2024/01/28 03:22:43;;;;;;;9.68;2.20;;;;;;;3.04;78.66;100925.38;5024046;28;20037;-50
2024/01/28 03:25:09;;;;;;;2.58;1.23;;;;;;;3.02;79.06;100921.88;5018493;28;20456;-55
2024/01/28 03:27:36;;;;;;;12.82;2.38;;;;;;;3.01;78.89;100919.25;5022286;28;20460;-51
2024/01/28 03:30:04;;;;;;;8.63;2.40;;;;;;;2.99;79.44;100910.63;5022375;28;20617;-57
2024/01/28 03:32:32;;;;;;;3.15;1.42;;;;;;;2.94;79.21;100907.91;5022786;28;20046;-51
2024/01/28 03:35:00;;;;;;;10.57;2.42;;;;;;;2.97;79.68;100905.44;5023516;28;20048;-55
2024/01/28 03:37:27;;;;;;;4.40;2.03;;;;;;;2.99;78.95;100908.94;5020727;28;20144;-55
2024/01/28 03:39:54;;;;;;;5.32;2.10;;;;;;;2.98;79.19;100909.78;5024904;28;20056;-51
2024/01/28 03:42:22;;;;;;;8.82;2.28;;;;;;;3.00;78.73;100903.00;5021873;28;20136;-58
2024/01/28 03:44:49;;;;;;;6.75;1.77;;;;;;;2.97;79.75;100902.88;5020028;28;20057;-56
2024/01/28 03:47:16;;;;;;;12.70;1.98;;;;;;;2.99;79.38;100895.28;5021503;28;20053;-51
2024/01/28 03:49:43;;;;;;;7.68;2.33;;;;;;;2.97;79.09;100897.75;5023000;28;20049;-54
2024/01/28 03:52:10;;;;;;;5.55;2.05;;;;;;;3.00;79.14;100897.03;5022245;28;20685;-54
2024/01/28 03:54:36;;;;;;;8.18;2.40;;;;;;;2.99;78.97;100893.59;5023757;28;20054;-56
2024/01/28 03:57:03;;;;;;;5.47;1.45;;;;;;;2.96;79.74;100890.91;5022068;28;20045;-53
2024/01/28 03:59:30;;;;;;;3.88;1.90;;;;;;;3.00;79.09;100877.41;5025834;28;20059;-56
2024/01/28 04:01:57;;;;;;;9.25;1.60;;;;;;;2.99;79.32;100870.56;5015676;28;20054;-58
2024/01/28 04:04:24;;;;;;;7.90;1.33;;;;;;;2.97;80.47;100867.06;5024220;28;20046;-55
2024/01/28 04:06:53;;;;;;;2.97;1.08;;;;;;;2.98;80.60;100861.16;5025208;28;20103;-50
2024/01/28 04:09:20;;;;;;;6.78;1.92;;;;;;;3.00;81.02;100859.50;5022275;28;20054;-49
2024/01/28 04:11:46;;;;;;;5.72;1.27;;;;;;;3.02;81.33;100855.34;5024539;28;20049;-55
2024/01/28 04:14:13;;;;;;;9.05;2.50;;;;;;;3.04;80.73;100846.03;5019570;28;20049;-51
2024/01/28 04:16:40;;;;;;;8.15;1.58;;;;;;;3.04;81.29;100843.47;5025085;28;20051;-53
2024/01/28 04:19:06;;;;;;;2.47;1.33;;;;;;;3.08;81.39;100845.34;5023827;28;20050;-55
2024/01/28 04:21:35;;;;;;;3.13;0.95;;;;;;;3.14;80.90;100854.09;5022770;28;20053;-52
2024/01/28 04:24:02;;;;;;;6.18;1.67;;;;;;;3.20;81.32;100852.66;5023060;28;20045;-54
2024/01/28 04:26:28;;;;;;;5.13;1.65;;;;;;;3.26;80.83;100839.22;5024312;28;20053;-49
2024/01/28 04:28:56;;;;;;;7.30;1.77;;;;;;;3.30;80.84;100846.22;5024842;28;20046;-52
2024/01/28 04:31:27;;;;;;;7.95;1.58;;;;;;;3.31;81.11;100844.53;5024145;28;20139;-54
2024/01/28 04:33:54;;;;;;;3.08;1.25;;;;;;;3.34;80.69;100830.16;5018578;28;20056;-50
2024/01/28 04:36:21;;;;;;;5.85;1.52;;;;;;;3.39;80.43;100826.91;5019333;28;20487;-54
2024/01/28 04:38:48;;;;;;;6.53;1.92;;;;;;;3.43;81.11;100826.19;5025303;28;20176;-51
2024/01/28 04:41:15;;;;;;;3.38;1.70;;;;;;;3.43;81.09;100818.53;5024520;28;20049;-50
2024/01/28 04:43:41;;;;;;;3.70;1.33;;;;;;;3.45;80.60;100819.47;5026284;28;20089;-52
2024/01/28 04:46:08;;;;;;;6.50;1.88;;;;;;;3.48;81.14;100817.03;5025455;28;20076;-50
2024/01/28 04:48:36;;;;;;;2.55;1.15;;;;;;;3.49;80.55;100816.22;5023700;28;20148;-54
2024/01/28 04:51:03;;;;;;;3.05;1.25;;;;;;;3.54;80.23;100819.81;5018221;28;20079;-51
2024/01/28 04:53:30;;;;;;;1.60;0.88;;;;;;;3.51;81.27;100814.56;5019895;28;20057;-51
2024/01/28 04:55:57;;;;;;;5.60;2.15;;;;;;;3.52;80.61;100800.97;5024862;28;20418;-53
2024/01/28 04:58:23;;;;;;;5.40;2.25;;;;;;;3.55;80.32;100800.19;5024299;28;20049;-52
2024/01/28 05:00:50;;;;;;;5.25;2.17;;;;;;;3.58;80.59;100805.44;5023508;28;20072;-50
2024/01/28 05:03:17;;;;;;;2.75;1.30;;;;;;;3.59;80.33;100808.03;5022902;28;20524;-50
2024/01/28 05:05:44;;;;;;;2.67;1.52;;;;;;;3.53;80.63;100795.00;5026449;28;20498;-47
2024/01/28 05:08:11;;;;;;;3.53;1.13;;;;;;;3.62;80.89;100797.06;5024881;28;20069;-54
2024/01/28 05:10:38;;;;;;;7.70;1.58;;;;;;;3.66;80.16;100792.91;5028449;28;20049;-58
2024/01/28 05:13:05;;;;;;;8.90;2.17;;;;;;;3.67;80.21;100794.66;5026520;28;20045;-54
2024/01/28 05:15:32;;;;;;;5.13;1.77;;;;;;;3.68;80.11;100784.47;5026885;28;20045;-50
2024/01/28 05:17:59;;;;;;;2.70;1.25;;;;;;;3.67;79.84;100787.84;5023719;28;20068;-49
2024/01/28 05:20:26;;;;;;;6.53;1.83;;;;;;;3.63;79.73;100777.41;5022566;28;20144;-52
2024/01/28 05:22:52;;;;;;;2.22;1.00;;;;;;;3.65;79.18;100779.22;5027089;28;20045;-57
2024/01/28 05:25:19;;;;;;;2.60;1.38;;;;;;;3.62;79.58;100775.69;5025884;28;20064;-54
2024/01/28 05:27:46;;;;;;;8.25;2.40;;;;;;;3.63;79.66;100769.72;5028244;28;20045;-57
2024/01/28 05:30:13;;;;;;;2.85;1.25;;;;;;;3.60;79.77;100765.38;5024783;28;20053;-53
2024/01/28 05:32:40;;;;;;;7.93;1.63;;;;;;;3.62;79.82;100776.56;5024130;28;20058;-52
2024/01/28 05:35:07;;;;;;;11.77;1.95;;;;;;;3.59;79.45;100772.16;5027348;28;20084;-48
2024/01/28 05:37:36;;;;;;;3.88;1.52;;;;;;;3.59;80.06;100772.16;5024862;28;20108;-51
2024/01/28 05:40:04;;;;;;;5.20;2.10;;;;;;;3.60;79.53;100773.06;5028228;28;20107;-54
2024/01/28 05:42:32;;;;;;;6.13;1.85;;;;;;;3.60;79.78;100771.38;5026343;28;20041;-53
2024/01/28 05:44:58;;;;;;;12.10;2.72;;;;;;;3.59;79.71;100777.28;5020902;28;20049;-50
2024/01/28 05:47:25;;;;;;;6.22;2.30;;;;;;;3.59;79.23;100772.16;5020406;28;20038;-57
2024/01/28 05:49:52;;;;;;;7.65;2.53;;;;;;;3.56;79.92;100769.53;5019779;28;20054;-55
2024/01/28 05:52:19;;;;;;;5.07;2.05;;;;;;;3.57;79.85;100760.13;5026956;28;20044;-57
2024/01/28 05:54:46;;;;;;;7.85;1.75;;;;;;;3.50;80.29;100756.47;5026452;28;20056;-51
2024/01/28 05:57:12;;;;;;;4.65;1.73;;;;;;;3.57;79.65;100758.44;5027282;28;20050;-48
2024/01/28 05:59:39;;;;;;;7.40;2.20;;;;;;;3.57;80.02;100757.56;5028314;28;20556;-54
2024/01/28 06:02:06;;;;;;;7.32;2.10;;;;;;;3.57;79.45;100753.31;5027025;28;20053;-53
2024/01/28 06:04:32;;;;;;;6.47;1.75;;;;;;;3.56;80.08;100751.59;5025273;28;20140;-52
2024/01/28 06:07:00;;;;;;;4.35;1.60;;;;;;;3.56;79.89;100753.28;5027399;28;20053;-57
2024/01/28 06:09:27;;;;;;;4.90;2.17;;;;;;;3.54;80.11;100752.31;5026680;28;20073;-56
2024/01/28 06:11:54;;;;;;;2.97;1.20;;;;;;;3.56;79.44;100760.94;5027599;28;20091;-53
2024/01/28 06:14:21;;;;;;;5.88;1.92;;;;;;;3.55;79.91;100756.66;5027947;28;20049;-57
2024/01/28 06:16:47;;;;;;;6.57;2.47;;;;;;;3.55;79.75;100749.81;5028424;28;20509;-51
2024/01/28 06:19:14;;;;;;;7.88;1.70;;;;;;;3.53;79.71;100754.03;5027593;28;20328;-54
2024/01/28 06:21:41;;;;;;;1.70;1.13;;;;;;;3.50;79.96;100746.22;5026753;28;20102;-53
2024/01/28 06:24:08;;;;;;;3.90;1.70;;;;;;;3.52;79.76;100743.72;5026998;28;20045;-53
2024/01/28 06:26:37;;;;;;;6.72;1.50;;;;;;;3.52;79.44;100744.59;5024247;28;20716;-49
2024/01/28 06:29:03;;;;;;;4.00;1.50;;;;;;;3.53;79.26;100741.22;5023409;28;20050;-48
2024/01/28 06:31:30;;;;;;;4.72;1.90;;;;;;;3.53;79.07;100733.53;5027754;28;20048;-56
2024/01/28 06:33:57;;;;;;;8.45;2.30;;;;;;;3.53;79.80;100728.41;5026976;28;20049;-56
2024/01/28 06:36:25;;;;;;;6.15;1.50;;;;;;;3.50;79.91;100730.84;5027459;28;20083;-55
2024/01/28 06:38:52;;;;;;;3.97;1.50;;;;;;;3.51;80.22;100727.47;5026884;28;20168;-54
2024/01/28 06:41:18;;;;;;;3.83;1.38;;;;;;;3.54;80.37;100721.59;5027002;28;20047;-55
2024/01/28 06:43:45;;;;;;;4.18;1.77;;;;;;;3.52;79.94;100713.88;5026768;28;20186;-51
2024/01/28 06:46:12;;;;;;;4.15;1.77;;;;;;;3.55;79.81;100713.97;5027587;28;20470;-54
2024/01/28 06:48:38;;;;;;;4.13;1.40;;;;;;;3.58;79.39;100714.06;5026867;28;20053;-56
2024/01/28 06:51:06;;;;;;;4.22;2.05;;;;;;;3.59;79.37;100710.69;5024904;28;20049;-56
2024/01/28 06:53:33;;;;;;;3.97;1.40;;;;;;;3.56;79.64;100715.72;5025428;28;20111;-55
2024/01/28 06:55:59;;;;;;;3.58;1.67;;;;;;;3.54;79.45;100704.53;5013842;28;20521;-51
2024/01/28 06:58:29;;;;;;;5.00;1.63;;;;;;;3.52;79.36;100711.31;5023238;28;20050;-54
2024/01/28 07:00:57;;;;;;;3.28;1.60;;;;;;;3.50;80.23;100712.03;5022521;28;20516;-50
2024/01/28 07:03:25;;;;;;;7.22;1.30;;;;;;;3.49;80.10;100713.75;5025634;28;20073;-53
2024/01/28 07:05:52;;;;;;;3.42;1.83;;;;;;;3.46;80.84;100711.97;5015750;28;20127;-50
2024/01/28 07:08:18;;;;;;;3.10;0.88;;;;;;;3.45;80.59;100702.50;5011785;28;20045;-55
2024/01/28 07:10:45;;;;;;;4.65;1.38;;;;;;;3.51;80.18;100703.56;5012221;28;20058;-56
2024/01/28 07:13:13;;;;;;;7.93;1.40;;;;;;;3.52;80.38;100713.00;5027173;28;20418;-49
2024/01/28 07:15:40;;;;;;;3.72;1.20;;;;;;;3.51;80.59;100708.69;5027071;28;20099;-57
2024/01/28 07:18:07;;;;;;;5.97;1.15;;;;;;;3.50;80.60;100705.25;5027578;28;20052;-55
2024/01/28 07:20:33;;;;;;;2.60;1.45;;;;;;;3.47;81.32;100710.25;5025426;28;20053;-51
2024/01/28 07:23:00;;;;;;;4.38;1.40;;;;;;;3.51;81.47;100712.09;5024387;28;20510;-50
2024/01/28 07:25:27;;;;;;;3.08;0.90;;;;;;;3.55;80.72;100707.97;5024269;28;20054;-49
2024/01/28 07:27:53;;;;;;;10.35;2.63;;;;;;;3.55;81.27;100708.84;5026722;28;20410;-55
2024/01/28 07:30:21;;;;;;;6.45;2.15;;;;;;;3.58;81.13;100719.19;5027365;28;20037;-50
2024/01/28 07:32:48;;;;;;;7.18;1.63;;;;;;;3.62;81.03;100709.06;5021988;28;20077;-53
2024/01/28 07:35:16;;;;;;;6.65;1.65;;;;;;;3.60;80.71;100715.03;5022824;28;20502;-55
2024/01/28 07:37:43;;;;;;;5.65;1.80;;;;;;;3.62;80.37;100706.50;5018427;28;20079;-53
2024/01/28 07:40:10;;;;;;;3.20;1.52;;;;;;;3.63;80.99;100701.44;5025455;28;20057;-48
2024/01/28 07:42:37;;;;;;;5.50;1.40;;;;;;;3.64;81.06;100694.66;5025516;28;20049;-56
2024/01/28 07:45:04;;;;;;;2.40;1.23;;;;;;;3.63;80.39;100690.31;5026026;28;20045;-56
2024/01/28 07:47:31;;;;;;;3.35;1.65;;;;;;;3.62;81.02;100686.91;5017671;28;20391;-54
2024/01/28 07:49:59;;;;;;;4.88;2.15;;;;;;;3.65;80.50;100684.41;5026013;28;20077;-54
2024/01/28 07:52:26;;;;;;;2.08;1.27;;;;;;;3.68;80.69;100683.69;5024777;28;20056;-55
2024/01/28 07:54:53;;;;;;;4.88;1.60;;;;;;;3.70;81.33;100687.16;5022211;28;20050;-52
2024/01/28 07:57:21;;;;;;;6.15;2.03;;;;;;;3.76;80.65;100686.50;5016669;28;20053;-49
2024/01/28 07:59:49;;;;;;;3.53;1.45;;;;;;;3.77;81.59;100686.56;5013996;28;20081;-56
2024/01/28 08:02:16;;;;;;;4.70;1.23;;;;;;;3.76;81.65;100684.81;5010709;28;20570;-51
2024/01/28 08:04:44;;;;;;;3.10;2.10;;;;;;;3.84;81.14;100685.97;5012047;28;20061;-53
2024/01/28 08:07:11;;;;;;;2.42;1.17;;;;;;;3.88;81.45;100676.69;5008277;28;20110;-55
2024/01/28 08:09:38;;;;;;;4.15;1.60;;;;;;;3.90;81.42;100679.31;5016362;28;20053;-53
2024/01/28 08:12:06;;;;;;;3.70;1.58;;;;;;;3.85;82.46;100676.59;5011251;28;20046;-54
2024/01/28 08:14:33;;;;;;;3.33;1.42;;;;;;;3.95;81.95;100667.53;5009414;28;20056;-54
2024/01/28 08:17:00;;;;;;;2.15;1.10;;;;;;;3.99;81.93;100666.81;5013407;28;20128;-55
2024/01/28 08:19:26;;;;;;;7.95;1.55;;;;;;;3.98;82.49;100670.19;5012174;28;20053;-52
2024/01/28 08:21:53;;;;;;;1.88;0.90;;;;;;;4.04;82.57;100670.41;5012056;28;20056;-54
2024/01/28 08:24:20;;;;;;;4.65;1.25;;;;;;;4.09;81.96;100661.16;5013069;28;20085;-52
2024/01/28 08:26:48;;;;;;;4.10;1.02;;;;;;;4.09;82.46;100676.53;5009539;28;20569;-53
2024/01/28 08:29:15;;;;;;;3.60;1.40;;;;;;;4.10;82.22;100662.94;5016448;28;20053;-53
2024/01/28 08:31:41;;;;;;;5.78;1.40;;;;;;;4.13;82.09;100661.28;5010980;28;20052;-53
2024/01/28 08:34:08;;;;;;;12.75;1.60;;;;;;;4.14;82.32;100650.19;5016259;28;20049;-47
2024/01/28 08:36:35;;;;;;;3.45;1.60;;;;;;;4.19;82.05;100646.97;5013590;28;20069;-57
2024/01/28 08:39:04;;;;;;;3.78;1.50;;;;;;;4.24;82.26;100647.13;5016815;28;20073;-56
2024/01/28 08:41:31;;;;;;;1.73;1.17;;;;;;;4.30;81.63;100643.88;5016178;28;20050;-51
2024/01/28 08:44:04;;;;;;;2.75;1.80;;;;;;;4.37;81.58;100645.84;5014135;28;20501;-50
2024/01/28 08:46:30;;;;;;;1.98;1.15;;;;;;;4.52;81.10;100650.56;5010624;28;20061;-55
2024/01/28 08:48:57;;;;;;;7.85;1.92;;;;;;;4.65;81.44;100644.13;5022855;28;20586;-57
2024/01/28 08:51:24;;;;;;;3.70;1.20;;;;;;;4.92;81.36;100639.78;5022767;28;20048;-57
2024/01/28 08:53:52;;;;;;;4.78;1.58;;;;;;;5.14;81.03;100637.03;5015199;28;20107;-50
2024/01/28 08:56:19;;;;;;;1.98;0.93;;;;;;;5.37;80.43;100628.25;5017058;28;20123;-54
2024/01/28 08:58:46;;;;;;;7.90;0.90;;;;;;;5.61;80.38;100634.91;5022597;28;20041;-53
2024/01/28 09:01:13;;;;;;;3.75;1.30;;;;;;;5.88;78.78;100632.19;5026980;28;20156;-52
2024/01/28 09:03:40;;;;;;;4.38;1.50;;;;;;;6.13;77.96;100629.41;5029006;28;20046;-54
2024/01/28 09:06:07;;;;;;;2.47;1.27;;;;;;;6.37;77.30;100626.56;5027446;28;20140;-54
2024/01/28 09:08:35;;;;;;;3.30;1.50;;;;;;;6.55;77.62;100620.09;5024080;28;20465;-55
2024/01/28 09:11:02;;;;;;;2.40;1.25;;;;;;;6.65;76.32;100616.91;5025658;28;20041;-54
2024/01/28 09:13:29;;;;;;;12.52;1.50;;;;;;;6.78;75.35;100619.75;5019488;28;20076;-59
2024/01/28 09:15:55;;;;;;;5.88;1.38;;;;;;;6.91;75.77;100619.19;5027956;28;20104;-52
2024/01/28 09:18:22;;;;;;;3.25;1.00;;;;;;;7.07;75.26;100614.38;5022639;28;20042;-57
2024/01/28 09:20:51;;;;;;;2.40;1.15;;;;;;;7.19;74.45;100617.19;5027462;28;20048;-55
2024/01/28 09:23:17;;;;;;;2.58;1.08;;;;;;;7.48;74.43;100615.16;5027638;28;20049;-58
2024/01/28 09:25:44;;;;;;;1.80;0.95;;;;;;;7.91;73.13;100621.06;5020758;28;20075;-50
2024/01/28 09:28:11;;;;;;;3.85;1.60;;;;;;;8.42;72.13;100618.50;5024407;28;20049;-52
2024/01/28 09:30:41;;;;;;;2.65;1.42;;;;;;;9.00;71.96;100620.19;5020344;28;20144;-58
2024/01/28 09:33:10;;;;;;;3.25;0.90;;;;;;;9.50;69.82;100618.16;5023974;28;20049;-53
2024/01/28 09:35:42;;;;;;;6.35;2.25;;;;;;;9.72;68.60;100623.56;5027632;28;20558;-57
2024/01/28 09:38:08;;;;;;;3.45;0.95;;;;;;;9.93;67.35;100616.84;5025277;28;20053;-54
2024/01/28 09:40:35;;;;;;;4.78;1.88;;;;;;;10.20;67.82;100615.38;5022757;28;20087;-57
2024/01/28 09:43:13;;;;;;;1.38;0.82;;;;;;;10.52;66.71;100617.38;5026192;28;20520;-50
2024/01/28 09:45:40;;;;;;;3.35;1.77;;;;;;;10.91;67.01;100619.31;5026964;28;20122;-55
2024/01/28 09:48:07;;;;;;;4.13;1.27;;;;;;;11.14;65.60;100616.81;5016936;28;20704;-54
2024/01/28 09:50:34;;;;;;;1.48;0.98;;;;;;;11.07;65.46;100609.03;5024705;28;20537;-52
2024/01/28 09:53:05;;;;;;;4.60;1.73;;;;;;;10.86;65.98;100605.47;5027275;28;20422;-56
2024/01/28 09:55:36;;;;;;;3.75;1.50;;;;;;;10.65;66.08;100602.78;5019919;28;20061;-56
2024/01/28 09:58:05;;;;;;;5.35;0.98;;;;;;;10.43;66.47;100593.94;5016203;28;20049;-54
2024/01/28 10:00:31;;;;;;;6.05;2.05;;;;;;;10.24;65.76;100598.16;5016971;28;20053;-56
2024/01/28 10:02:58;;;;;;;2.47;1.10;;;;;;;9.96;66.50;100598.78;5012377;28;20053;-52
2024/01/28 10:05:25;;;;;;;2.67;1.13;;;;;;;9.82;66.56;100582.25;5010535;28;20663;-51
2024/01/28 10:08:02;;;;;;;3.03;1.52;;;;;;;9.97;67.18;100587.56;5011951;28;20053;-55
2024/01/28 10:10:29;;;;;;;1.35;1.10;;;;;;;10.40;67.76;100596.50;5015740;28;20073;-54
2024/01/28 10:12:57;;;;;;;4.90;1.95;;;;;;;10.70;66.91;100584.66;5016685;28;20050;-54
2024/01/28 10:15:27;;;;;;;3.55;1.85;;;;;;;11.22;66.76;100587.47;5020706;28;20076;-52
2024/01/28 10:17:54;;;;;;;1.98;1.00;;;;;;;11.72;65.47;100593.63;5012295;28;20466;-54
2024/01/28 10:20:23;;;;;;;3.85;1.00;;;;;;;12.27;64.72;100591.94;5023142;28;20053;-53
2024/01/28 10:22:52;;;;;;;2.63;0.85;;;;;;;12.64;63.82;100579.75;5021076;28;20879;-54
2024/01/28 10:25:22;;;;;;;5.18;1.52;;;;;;;12.72;62.48;100572.78;5009419;28;20065;-57
2024/01/28 10:27:49;;;;;;;3.45;0.77;;;;;;;12.68;62.57;100579.75;5016037;28;20490;-58
2024/01/28 10:30:19;;;;;;;5.20;1.02;;;;;;;12.45;62.41;100574.59;5010984;28;20133;-55
2024/01/28 10:32:48;;;;;;;2.83;1.17;;;;;;;11.88;61.36;100572.88;5018536;28;20054;-55
2024/01/28 10:35:16;;;;;;;2.38;1.13;;;;;;;11.53;62.16;100557.28;5009620;28;20116;-55
2024/01/28 10:37:50;;;;;;;2.88;0.90;;;;;;;11.12;61.82;100555.47;5010333;28;20046;-54
2024/01/28 10:40:18;;;;;;;1.58;0.77;;;;;;;10.71;62.63;100550.09;5009710;28;20049;-54
2024/01/28 10:42:49;;;;;;;3.70;1.92;;;;;;;10.55;63.72;100554.34;5015378;28;20072;-53
2024/01/28 10:45:22;;;;;;;3.90;1.25;;;;;;;10.44;64.36;100564.63;5019915;28;20052;-56
2024/01/28 10:47:53;;;;;;;1.98;0.70;;;;;;;10.35;64.57;100575.78;5015689;28;20053;-55
2024/01/28 10:50:24;;;;;;;3.28;1.13;;;;;;;10.38;64.40;100587.88;5016751;28;20588;-50
2024/01/28 10:52:52;;;;;;;2.13;0.82;;;;;;;10.35;65.75;100587.84;5011027;28;20045;-54
2024/01/28 10:55:21;;;;;;;2.03;1.10;;;;;;;10.41;65.27;100586.16;5013198;28;20057;-50
2024/01/28 10:57:48;;;;;;;7.28;1.50;;;;;;;10.37;65.65;100587.00;5007939;28;20050;-56
2024/01/28 11:00:20;;;;;;;2.30;1.10;;;;;;;10.36;66.13;100585.28;5020412;28;20136;-56
2024/01/28 11:02:49;;;;;;;1.58;1.00;;;;;;;10.27;65.59;100578.31;5011472;28;20053;-53
2024/01/28 11:05:18;;;;;;;3.42;0.90;;;;;;;10.24;65.67;100586.06;5018984;28;20569;-51
2024/01/28 11:07:48;;;;;;;4.32;1.83;;;;;;;10.23;66.33;100571.38;5010262;28;20053;-59
2024/01/28 11:10:17;;;;;;;2.42;0.85;;;;;;;10.15;66.62;100571.34;5009430;28;20144;-56
2024/01/28 11:12:43;;;;;;;3.25;1.73;;;;;;;10.12;66.63;100575.59;5008152;28;20042;-55
2024/01/28 11:15:13;;;;;;;3.55;1.45;;;;;;;10.13;66.42;100569.56;5013325;28;20108;-52
2024/01/28 11:17:40;;;;;;;4.70;1.63;;;;;;;10.09;66.93;100585.94;5011771;28;20158;-60
2024/01/28 11:20:09;;;;;;;2.72;1.70;;;;;;;10.09;67.20;100588.53;5016573;28;20049;-59
2024/01/28 11:22:49;;;;;;;3.30;1.10;;;;;;;10.05;67.05;100573.81;5013617;28;20227;-56
2024/01/28 11:25:20;;;;;;;3.75;1.25;;;;;;;10.09;67.72;100576.47;5016727;28;20471;-51
2024/01/28 11:27:49;;;;;;;3.72;1.00;;;;;;;10.06;67.86;100555.72;5013502;28;20081;-50
2024/01/28 11:30:25;;;;;;;6.43;1.50;;;;;;;10.05;67.84;100558.28;5013760;28;20423;-49
2024/01/28 11:33:07;;;;;;;5.22;1.08;;;;;;;10.08;67.29;100559.22;5013534;28;20064;-48